Time;durP1;ratioP1;P1;durP2;ratioP2;P2;SDS_P1;SDS_P2;PMS_P1;PMS_P2;Temp;Humidity;BMP_temperature;BMP_pressure;BME280_temperature;BME280_humidity;BME280_pressure;Samples;Min_cycle;Max_cycle;Signal;HPM_P1;HPM_P2
2023/10/04 00:00:37;;;;;;;10.77;3.60;;;12.90;99.90;;;;;;5070106;28;20491;-71
2023/10/04 00:03:04;;;;;;;10.15;3.42;;;12.80;99.90;;;;;;5062279;28;20037;-71
2023/10/04 00:05:30;;;;;;;12.35;4.05;;;12.80;99.90;;;;;;5079746;28;20040;-71
2023/10/04 00:07:56;;;;;;;10.80;3.40;;;12.80;99.90;;;;;;5071623;28;20036;-71
2023/10/04 00:10:23;;;;;;;7.13;3.53;;;12.80;99.90;;;;;;5060607;28;20048;-71
2023/10/04 00:12:49;;;;;;;9.15;3.65;;;12.80;99.90;;;;;;5077755;28;20036;-71
2023/10/04 00:15:15;;;;;;;8.02;3.38;;;12.70;99.90;;;;;;5092471;28;20051;-70
2023/10/04 00:17:42;;;;;;;10.50;3.60;;;12.70;99.90;;;;;;5072542;28;20039;-72
2023/10/04 00:20:17;;;;;;;6.68;3.08;;;12.70;99.90;;;;;;5057411;28;20051;-72
2023/10/04 00:22:44;;;;;;;12.20;3.00;;;12.70;99.90;;;;;;5067837;28;20036;-72
2023/10/04 00:25:16;;;;;;;6.97;2.65;;;12.70;99.90;;;;;;5072471;28;20111;-72
2023/10/04 00:27:43;;;;;;;9.95;2.90;;;12.70;99.90;;;;;;5057888;28;20024;-72
2023/10/04 00:30:17;;;;;;;8.80;3.00;;;12.70;99.90;;;;;;5071801;28;20036;-72
2023/10/04 00:32:46;;;;;;;6.18;2.53;;;12.70;99.90;;;;;;5071882;28;20045;-70
2023/10/04 00:35:17;;;;;;;8.00;2.67;;;12.70;99.90;;;;;;5068242;28;20036;-71
2023/10/04 00:37:47;;;;;;;6.75;2.80;;;12.60;99.90;;;;;;5071177;28;20040;-70
2023/10/04 00:40:18;;;;;;;7.78;2.40;;;12.70;99.90;;;;;;5071959;28;20044;-70
2023/10/04 00:42:47;;;;;;;;;;;12.70;99.90;;;;;;5067080;28;20041;-70
2023/10/04 00:45:13;;;;;;;5.22;2.33;;;12.70;99.90;;;;;;5057898;28;20382;-70
2023/10/04 00:47:47;;;;;;;11.10;2.60;;;12.70;99.90;;;;;;5071639;28;20058;-70
2023/10/04 00:50:15;;;;;;;7.53;2.75;;;12.60;99.90;;;;;;5071839;28;20032;-71
2023/10/04 00:52:48;;;;;;;6.40;2.33;;;12.60;99.90;;;;;;5064435;28;20491;-71
2023/10/04 00:55:19;;;;;;;7.95;2.50;;;12.60;99.90;;;;;;5069765;28;20477;-70
2023/10/04 00:57:48;;;;;;;10.30;2.40;;;12.50;99.90;;;;;;5070584;28;20048;-70
2023/10/04 01:00:14;;;;;;;7.45;2.38;;;12.50;99.90;;;;;;5067880;28;20090;-70
2023/10/04 01:02:39;;;;;;;7.53;2.47;;;12.50;99.90;;;;;;5066519;28;20718;-70
2023/10/04 01:05:07;;;;;;;8.70;2.10;;;12.50;99.90;;;;;;5071809;28;20036;-71
2023/10/04 01:07:32;;;;;;;6.15;2.08;;;12.50;99.90;;;;;;5067275;28;20159;-70
2023/10/04 01:09:58;;;;;;;6.28;2.50;;;12.50;99.90;;;;;;5065352;28;20125;-70
2023/10/04 01:12:24;;;;;;;5.82;2.33;;;12.50;99.90;;;;;;5070004;28;20041;-70
2023/10/04 01:14:53;;;;;;;10.68;2.20;;;12.40;99.90;;;;;;5071156;28;20079;-70
2023/10/04 01:17:19;;;;;;;7.03;2.42;;;12.40;99.90;;;;;;5059137;28;20111;-70
2023/10/04 01:19:45;;;;;;;11.57;2.53;;;12.40;99.90;;;;;;5066368;28;20087;-70
2023/10/04 01:22:11;;;;;;;6.60;2.60;;;12.30;99.90;;;;;;5071465;28;20121;-70
2023/10/04 01:24:41;;;;;;;9.57;2.67;;;12.30;99.90;;;;;;5052796;28;20049;-70
2023/10/04 01:27:08;;;;;;;8.85;2.60;;;12.30;99.90;;;;;;5051721;28;20387;-71
2023/10/04 01:29:33;;;;;;;6.60;2.40;;;12.30;99.90;;;;;;5070926;28;20029;-71
2023/10/04 01:31:59;;;;;;;9.25;2.70;;;12.30;99.90;;;;;;5071495;28;20044;-70
2023/10/04 01:34:25;;;;;;;15.38;3.00;;;12.30;99.90;;;;;;5068200;28;20089;-71
2023/10/04 01:36:51;;;;;;;7.93;2.35;;;12.40;99.90;;;;;;5070030;28;20040;-71
2023/10/04 01:39:18;;;;;;;7.38;2.83;;;12.40;99.90;;;;;;5071006;28;20051;-71
2023/10/04 01:41:44;;;;;;;7.63;2.50;;;12.40;99.90;;;;;;5062223;28;20056;-70
2023/10/04 01:44:10;;;;;;;8.73;2.53;;;12.30;99.90;;;;;;5065662;28;20040;-70
2023/10/04 01:46:38;;;;;;;7.00;2.50;;;12.30;99.90;;;;;;5070952;28;20072;-71
2023/10/04 01:49:07;;;;;;;8.20;2.92;;;12.30;99.90;;;;;;5071389;28;20056;-70
2023/10/04 01:51:33;;;;;;;17.10;2.72;;;12.20;99.90;;;;;;5067009;28;20037;-71
2023/10/04 01:54:00;;;;;;;9.95;2.90;;;12.20;99.90;;;;;;5061890;28;20036;-71
2023/10/04 01:56:26;;;;;;;12.85;2.80;;;12.10;99.90;;;;;;5070748;28;20047;-71
2023/10/04 01:58:53;;;;;;;10.30;2.85;;;12.10;99.90;;;;;;5059214;28;20415;-71
2023/10/04 02:01:19;;;;;;;11.82;2.72;;;12.00;99.90;;;;;;5064485;28;20044;-70
2023/10/04 02:03:45;;;;;;;11.23;3.30;;;12.00;99.90;;;;;;5070008;28;20443;-70
2023/10/04 02:06:11;;;;;;;11.23;3.13;;;12.00;99.90;;;;;;5067030;28;20514;-71
2023/10/04 02:08:37;;;;;;;10.07;3.20;;;11.90;99.90;;;;;;5058854;28;20033;-71
2023/10/04 02:11:06;;;;;;;12.50;3.40;;;11.90;99.90;;;;;;5066740;28;20040;-71
2023/10/04 02:13:32;;;;;;;8.05;3.13;;;11.90;99.90;;;;;;5051049;28;20399;-70
2023/10/04 02:15:59;;;;;;;6.72;2.97;;;11.90;99.90;;;;;;5056049;28;20048;-70
2023/10/04 02:18:24;;;;;;;8.63;3.20;;;11.90;99.90;;;;;;5070331;28;20044;-70
2023/10/04 02:20:53;;;;;;;9.32;3.35;;;12.00;99.90;;;;;;5070783;28;20120;-70
2023/10/04 02:23:18;;;;;;;12.10;3.42;;;11.90;99.90;;;;;;5061697;28;20048;-71
2023/10/04 02:25:45;;;;;;;9.88;3.50;;;11.90;99.90;;;;;;5061598;28;20044;-71
2023/10/04 02:28:22;;;;;;;11.73;3.33;;;11.90;99.90;;;;;;5082585;28;20507;-71
2023/10/04 02:30:48;;;;;;;9.38;3.35;;;11.90;99.90;;;;;;5069757;28;20071;-71
2023/10/04 02:33:15;;;;;;;8.40;3.30;;;11.90;99.90;;;;;;5062072;28;20398;-71
2023/10/04 02:35:44;;;;;;;11.45;3.67;;;11.80;99.90;;;;;;5072250;28;20419;-72
2023/10/04 02:38:16;;;;;;;8.75;3.47;;;11.80;99.90;;;;;;5074492;28;20395;-72
2023/10/04 02:40:43;;;;;;;9.80;3.55;;;11.70;99.90;;;;;;5069622;28;20044;-72
2023/10/04 02:43:09;;;;;;;10.13;3.47;;;11.70;99.90;;;;;;5066396;28;20037;-72
2023/10/04 02:45:36;;;;;;;12.55;3.50;;;11.70;99.90;;;;;;5073597;28;20033;-72
2023/10/04 02:48:04;;;;;;;9.98;3.40;;;11.70;99.90;;;;;;5066376;28;20044;-72
2023/10/04 02:50:29;;;;;;;9.75;3.00;;;11.70;99.90;;;;;;5065870;28;20047;-71
2023/10/04 02:52:56;;;;;;;8.18;3.17;;;11.70;99.90;;;;;;5077351;28;20041;-72
2023/10/04 02:55:22;;;;;;;9.35;3.13;;;11.70;99.90;;;;;;5072717;28;20044;-71
2023/10/04 02:57:51;;;;;;;10.45;3.50;;;11.70;99.90;;;;;;5064072;28;20047;-71
2023/10/04 03:00:19;;;;;;;13.88;3.28;;;11.70;99.90;;;;;;5071409;28;20036;-72
2023/10/04 03:02:47;;;;;;;9.10;3.42;;;11.80;99.90;;;;;;5073460;28;20040;-72
2023/10/04 03:05:17;;;;;;;9.20;3.20;;;11.80;99.90;;;;;;5066216;28;20554;-72
2023/10/04 03:07:43;;;;;;;8.30;3.13;;;11.80;99.90;;;;;;5065807;28;20090;-72
2023/10/04 03:10:11;;;;;;;9.05;3.15;;;11.80;99.90;;;;;;5081843;28;20047;-73
2023/10/04 03:12:41;;;;;;;10.07;3.40;;;11.70;99.90;;;;;;5094146;28;20077;-72
2023/10/04 03:15:07;;;;;;;11.60;3.22;;;11.70;99.90;;;;;;5072830;28;20076;-72
2023/10/04 03:17:33;;;;;;;9.27;3.20;;;11.70;99.90;;;;;;5057199;28;20451;-72
2023/10/04 03:20:00;;;;;;;12.75;3.08;;;11.70;99.90;;;;;;5072000;28;20048;-72
2023/10/04 03:22:26;;;;;;;13.40;3.20;;;11.70;99.90;;;;;;5062203;28;20036;-72
2023/10/04 03:24:53;;;;;;;10.60;3.08;;;11.70;99.90;;;;;;5071849;28;20067;-72
2023/10/04 03:27:21;;;;;;;10.00;2.80;;;11.70;99.90;;;;;;5067814;28;20043;-72
2023/10/04 03:29:48;;;;;;;11.18;3.13;;;11.70;99.90;;;;;;5064566;28;20047;-72
2023/10/04 03:32:14;;;;;;;13.30;2.97;;;11.70;99.90;;;;;;5073191;28;20112;-72
2023/10/04 03:34:40;;;;;;;11.75;3.00;;;11.70;99.90;;;;;;5073306;28;20440;-71
2023/10/04 03:37:09;;;;;;;8.68;2.97;;;11.70;99.90;;;;;;5063928;28;20037;-72
2023/10/04 03:39:39;;;;;;;11.77;3.22;;;11.60;99.90;;;;;;5059673;28;20442;-72
2023/10/04 03:42:05;;;;;;;12.00;3.20;;;11.60;99.90;;;;;;5072003;28;20140;-72
2023/10/04 03:44:31;;;;;;;12.18;3.15;;;11.60;99.90;;;;;;5052948;28;20056;-72
2023/10/04 03:46:57;;;;;;;10.40;3.08;;;11.60;99.90;;;;;;5053223;28;20037;-72
2023/10/04 03:49:24;;;;;;;9.55;3.10;;;11.60;99.90;;;;;;5056054;28;20037;-72
2023/10/04 03:51:52;;;;;;;12.10;3.65;;;11.60;99.90;;;;;;5067977;28;20079;-72
2023/10/04 03:54:18;;;;;;;12.43;3.17;;;11.50;99.90;;;;;;5068088;28;20457;-72
2023/10/04 03:56:44;;;;;;;11.63;2.90;;;11.50;99.90;;;;;;5067194;28;20128;-72
2023/10/04 03:59:10;;;;;;;11.70;2.92;;;11.50;99.90;;;;;;5069335;28;20469;-72
2023/10/04 04:01:37;;;;;;;10.15;3.00;;;11.60;99.90;;;;;;5071556;28;20074;-72
2023/10/04 04:04:04;;;;;;;10.80;3.22;;;11.50;99.90;;;;;;5061663;28;20411;-72
2023/10/04 04:06:30;;;;;;;10.60;3.10;;;11.50;99.90;;;;;;5075495;28;20036;-72
2023/10/04 04:08:56;;;;;;;12.82;3.60;;;11.50;99.90;;;;;;5092931;28;20032;-72
2023/10/04 04:11:22;;;;;;;13.88;3.10;;;11.50;99.90;;;;;;5071288;28;20403;-72
2023/10/04 04:13:48;;;;;;;8.95;3.03;;;11.50;99.90;;;;;;5064439;28;20495;-72
2023/10/04 04:16:16;;;;;;;8.63;3.10;;;11.60;99.90;;;;;;5072119;28;20043;-72
2023/10/04 04:18:42;;;;;;;9.35;2.90;;;11.50;99.90;;;;;;5072584;28;20044;-72
2023/10/04 04:21:07;;;;;;;10.10;3.00;;;11.60;99.90;;;;;;5068842;28;20037;-71
2023/10/04 04:23:34;;;;;;;10.60;3.17;;;11.50;99.90;;;;;;5063822;28;20036;-72
2023/10/04 04:26:05;;;;;;;12.98;3.70;;;11.60;99.90;;;;;;5071182;28;20050;-71
2023/10/04 04:28:34;;;;;;;11.07;2.83;;;11.60;99.90;;;;;;5058244;28;20123;-72
2023/10/04 04:31:00;;;;;;;11.90;3.10;;;11.70;99.90;;;;;;5063163;28;20048;-72
2023/10/04 04:33:28;;;;;;;9.52;3.72;;;11.70;99.90;;;;;;5071138;28;20036;-71
2023/10/04 04:36:00;;;;;;;10.38;3.13;;;11.70;99.90;;;;;;5071703;28;20064;-71
2023/10/04 04:38:28;;;;;;;12.05;3.20;;;11.70;99.90;;;;;;5067321;28;20098;-72
2023/10/04 04:40:57;;;;;;;7.15;3.05;;;11.80;99.90;;;;;;5060490;28;20041;-72
2023/10/04 04:43:36;;;;;;;11.13;3.20;;;11.80;99.90;;;;;;5068897;28;20123;-72
2023/10/04 04:46:06;;;;;;;10.85;3.30;;;11.80;99.90;;;;;;5062596;28;20051;-72
2023/10/04 04:48:35;;;;;;;14.03;3.37;;;11.80;99.90;;;;;;5069728;28;20506;-72
2023/10/04 04:53:33;;;;;;;9.43;3.10;;;11.80;99.90;;;;;;5068202;28;20043;-72
2023/10/04 04:56:00;;;;;;;15.35;4.10;;;11.80;99.90;;;;;;5057450;28;20461;-72
2023/10/04 04:58:28;;;;;;;10.23;3.05;;;11.80;99.90;;;;;;5065449;28;20427;-72
2023/10/04 05:01:00;;;;;;;8.73;3.10;;;11.80;99.90;;;;;;5070926;28;20072;-72
2023/10/04 05:03:27;;;;;;;9.60;3.33;;;11.90;99.90;;;;;;5068656;28;20043;-72
2023/10/04 05:05:56;;;;;;;13.00;3.80;;;11.90;99.90;;;;;;5071169;28;20151;-72
2023/10/04 05:08:26;;;;;;;10.60;3.10;;;11.90;99.90;;;;;;5071766;28;20079;-72
2023/10/04 05:10:54;;;;;;;10.93;3.30;;;11.90;99.90;;;;;;5060853;28;20052;-72
2023/10/04 05:13:21;;;;;;;13.60;3.90;;;11.80;99.90;;;;;;5063658;28;20041;-72
2023/10/04 05:15:49;;;;;;;10.35;3.50;;;11.80;99.90;;;;;;5071278;28;20075;-72
2023/10/04 05:18:17;;;;;;;11.35;3.33;;;11.80;99.90;;;;;;5062281;28;20079;-70
2023/10/04 05:20:43;;;;;;;9.48;3.20;;;11.70;99.90;;;;;;5059743;28;20115;-70
2023/10/04 05:23:09;;;;;;;10.35;3.60;;;11.70;99.90;;;;;;5070011;28;20116;-70
2023/10/04 05:25:35;;;;;;;12.80;3.42;;;11.70;99.90;;;;;;5071128;28;20119;-69
2023/10/04 05:28:14;;;;;;;11.80;3.28;;;11.60;99.90;;;;;;5064864;28;20056;-70
2023/10/04 05:30:42;;;;;;;8.27;3.22;;;11.60;99.90;;;;;;5059230;28;20047;-70
2023/10/04 05:33:09;;;;;;;11.10;3.38;;;11.60;99.90;;;;;;5071326;28;20111;-70
2023/10/04 05:35:38;;;;;;;13.57;3.67;;;11.50;99.90;;;;;;5064651;28;20045;-72
2023/10/04 05:38:04;;;;;;;8.65;3.28;;;11.50;99.90;;;;;;5075222;28;20040;-71
2023/10/04 05:40:38;;;;;;;12.40;3.70;;;11.40;99.90;;;;;;5071167;28;20032;-72
2023/10/04 05:43:04;;;;;;;6.70;3.15;;;11.40;99.90;;;;;;5071139;28;20044;-72
2023/10/04 05:45:29;;;;;;;10.80;3.42;;;11.50;99.90;;;;;;5062822;28;20106;-72
2023/10/04 05:47:55;;;;;;;10.10;3.28;;;11.40;99.90;;;;;;5058395;28;20036;-72
2023/10/04 05:50:22;;;;;;;11.80;3.42;;;11.40;99.90;;;;;;5070225;28;20040;-71
2023/10/04 05:52:49;;;;;;;10.57;3.83;;;11.40;99.90;;;;;;5060065;28;20047;-71
2023/10/04 05:55:16;;;;;;;13.73;3.70;;;11.40;99.90;;;;;;5070074;28;20388;-73
2023/10/04 05:57:52;;;;;;;9.68;3.45;;;11.40;99.90;;;;;;5064833;28;20040;-70
2023/10/04 06:00:30;;;;;;;12.82;3.80;;;11.50;99.90;;;;;;5072816;28;20043;-71
2023/10/04 06:03:06;;;;;;;8.63;3.50;;;11.50;99.90;;;;;;5063668;28;20494;-71
2023/10/04 06:05:37;;;;;;;11.18;3.45;;;11.50;99.90;;;;;;5066499;28;20037;-71
2023/10/04 06:08:11;;;;;;;8.88;3.13;;;11.60;99.90;;;;;;5066775;28;20095;-70
2023/10/04 06:10:38;;;;;;;15.32;3.70;;;11.70;99.90;;;;;;5063285;28;20051;-70
2023/10/04 06:13:08;;;;;;;14.38;3.83;;;11.70;99.90;;;;;;5073594;28;20112;-69
2023/10/04 06:15:39;;;;;;;15.27;3.63;;;11.80;99.90;;;;;;5073602;28;20048;-69
2023/10/04 06:18:05;;;;;;;12.77;4.00;;;11.80;99.90;;;;;;5065996;28;20061;-69
2023/10/04 06:20:33;;;;;;;18.05;3.67;;;11.90;99.90;;;;;;5062365;28;20120;-69
2023/10/04 06:23:01;;;;;;;11.05;3.60;;;12.00;99.90;;;;;;5081223;28;20058;-71
2023/10/04 06:25:29;;;;;;;9.93;3.63;;;12.10;99.90;;;;;;5076701;28;20522;-71
2023/10/04 06:27:57;;;;;;;11.13;3.63;;;12.10;99.90;;;;;;5063051;28;20036;-69
2023/10/04 06:30:26;;;;;;;14.32;3.30;;;12.20;99.90;;;;;;5073149;28;20051;-69
2023/10/04 06:33:00;;;;;;;16.15;3.58;;;12.20;99.90;;;;;;5070086;28;20037;-69
2023/10/04 06:35:27;;;;;;;9.48;3.40;;;12.20;99.90;;;;;;5065810;28;20037;-69
2023/10/04 06:37:54;;;;;;;15.57;4.10;;;12.30;99.90;;;;;;5073538;28;20069;-69
2023/10/04 06:40:21;;;;;;;10.13;3.67;;;12.30;99.90;;;;;;5072499;28;20040;-69
2023/10/04 06:42:49;;;;;;;12.07;3.60;;;12.40;99.90;;;;;;5061849;28;20066;-69
2023/10/04 06:45:23;;;;;;;8.32;3.80;;;12.40;99.90;;;;;;5070250;28;20055;-69
2023/10/04 06:47:50;;;;;;;12.88;3.50;;;12.50;99.90;;;;;;5069952;28;20055;-71
2023/10/04 06:50:20;;;;;;;11.93;3.50;;;12.50;99.90;;;;;;5069920;28;20037;-69
2023/10/04 06:52:51;;;;;;;13.38;3.80;;;12.60;99.90;;;;;;5062800;28;20047;-71
2023/10/04 06:55:18;;;;;;;12.67;3.83;;;12.70;99.90;;;;;;5070904;28;20041;-70
2023/10/04 06:57:45;;;;;;;13.10;3.42;;;12.80;99.90;;;;;;5070431;28;20503;-70
2023/10/04 07:00:14;;;;;;;11.90;3.22;;;12.80;99.90;;;;;;5062033;28;20400;-71
2023/10/04 07:02:47;;;;;;;11.88;3.50;;;12.90;99.90;;;;;;5071460;28;20040;-70
2023/10/04 07:05:37;;;;;;;14.07;3.97;;;12.90;99.90;;;;;;5072864;28;20115;-69
2023/10/04 07:08:05;;;;;;;11.73;3.72;;;13.00;99.90;;;;;;5054315;28;20045;-71
2023/10/04 07:10:30;;;;;;;8.73;3.63;;;13.00;99.90;;;;;;5069914;28;20047;-70
2023/10/04 07:12:58;;;;;;;12.57;3.50;;;13.00;99.90;;;;;;5070713;28;20040;-70
2023/10/04 07:15:27;;;;;;;8.57;3.53;;;13.10;99.90;;;;;;5063331;28;20045;-70
2023/10/04 07:17:53;;;;;;;11.10;3.42;;;13.10;99.90;;;;;;5061686;28;20068;-70
2023/10/04 07:20:19;;;;;;;10.43;3.00;;;13.10;99.90;;;;;;5072558;28;20086;-71
2023/10/04 07:22:58;;;;;;;14.07;3.53;;;13.10;99.90;;;;;;5073181;28;20086;-70
2023/10/04 07:25:26;;;;;;;15.05;3.92;;;13.10;99.90;;;;;;5065103;28;20137;-70
2023/10/04 07:27:52;;;;;;;11.18;3.85;;;13.10;99.90;;;;;;5072138;28;20044;-71
2023/10/04 07:30:19;;;;;;;10.70;3.72;;;13.00;99.90;;;;;;5065589;28;20037;-71
2023/10/04 07:32:46;;;;;;;11.90;3.70;;;13.00;99.90;;;;;;5066096;28;20037;-70
2023/10/04 07:35:16;;;;;;;10.85;3.80;;;13.00;99.90;;;;;;5072448;28;20068;-70
2023/10/04 07:37:42;;;;;;;14.75;4.10;;;13.00;99.90;;;;;;5063167;28;20085;-71
2023/10/04 07:40:09;;;;;;;11.60;3.70;;;13.10;99.90;;;;;;5062152;28;20094;-69
2023/10/04 07:42:38;;;;;;;14.27;3.90;;;13.10;99.90;;;;;;5072794;28;20040;-69
2023/10/04 07:45:06;;;;;;;9.88;3.63;;;13.20;99.90;;;;;;5066533;28;20152;-69
2023/10/04 07:47:37;;;;;;;9.50;3.65;;;13.30;99.90;;;;;;5060097;28;20068;-69
2023/10/04 07:50:05;;;;;;;13.38;3.83;;;13.40;99.90;;;;;;5048357;28;20040;-70
2023/10/04 07:52:31;;;;;;;11.35;3.92;;;13.40;99.90;;;;;;5049874;28;20072;-69
2023/10/04 07:54:59;;;;;;;17.08;3.78;;;13.50;99.90;;;;;;5057327;28;20494;-67
2023/10/04 07:57:28;;;;;;;11.20;3.85;;;13.60;99.90;;;;;;5035471;28;20365;-70
2023/10/04 07:59:54;;;;;;;15.05;4.10;;;13.70;99.90;;;;;;5039767;28;20491;-71
2023/10/04 08:02:20;;;;;;;12.13;4.05;;;13.80;99.90;;;;;;5039050;28;20039;-70
2023/10/04 08:04:48;;;;;;;10.18;3.90;;;13.90;99.90;;;;;;5048041;28;20179;-70
2023/10/04 08:07:15;;;;;;;11.35;4.13;;;14.00;99.90;;;;;;5052295;28;20504;-70
2023/10/04 08:09:41;;;;;;;14.35;4.32;;;14.10;99.90;;;;;;5051392;28;20497;-71
2023/10/04 08:12:09;;;;;;;11.88;3.60;;;14.20;99.90;;;;;;5068499;28;20036;-71
2023/10/04 08:14:35;;;;;;;11.90;4.43;;;14.20;99.90;;;;;;5054806;28;20047;-71
2023/10/04 08:17:01;;;;;;;13.02;3.90;;;14.20;99.90;;;;;;5062877;28;20048;-71
2023/10/04 08:19:26;;;;;;;14.20;3.80;;;14.20;99.90;;;;;;5082712;28;20035;-70
2023/10/04 08:21:52;;;;;;;14.95;3.97;;;14.30;99.90;;;;;;5074740;28;20032;-70
2023/10/04 08:24:20;;;;;;;11.52;4.00;;;14.40;99.90;;;;;;5058738;28;20087;-70
2023/10/04 08:26:48;;;;;;;14.68;4.10;;;14.40;99.90;;;;;;5071463;28;20040;-69
2023/10/04 08:29:14;;;;;;;10.70;4.07;;;14.40;99.90;;;;;;5071897;28;20115;-70
2023/10/04 08:31:40;;;;;;;12.32;4.07;;;14.50;99.90;;;;;;5059968;28;20444;-71
2023/10/04 08:34:05;;;;;;;9.40;3.70;;;14.50;99.90;;;;;;5060611;28;20628;-70
2023/10/04 08:36:33;;;;;;;13.80;3.90;;;14.70;99.90;;;;;;5071497;28;20044;-71
2023/10/04 08:39:01;;;;;;;19.83;4.15;;;14.70;99.90;;;;;;5058593;28;20091;-70
2023/10/04 08:41:27;;;;;;;14.55;4.07;;;14.70;99.90;;;;;;5067592;28;20081;-70
2023/10/04 08:43:53;;;;;;;10.40;4.22;;;14.80;99.90;;;;;;5071165;28;20461;-69
2023/10/04 08:46:19;;;;;;;11.25;3.85;;;14.80;99.90;;;;;;5064274;28;20037;-70
2023/10/04 08:48:53;;;;;;;14.65;4.35;;;14.90;99.90;;;;;;5063085;28;20110;-70
2023/10/04 08:51:33;;;;;;;14.05;3.97;;;15.00;99.90;;;;;;5070204;28;20467;-70
2023/10/04 08:54:16;;;;;;;11.85;3.78;;;15.10;99.90;;;;;;5061927;28;20040;-71
2023/10/04 08:56:52;;;;;;;15.05;4.00;;;15.10;99.90;;;;;;5053903;28;20051;-69
2023/10/04 08:59:18;;;;;;;10.70;4.55;;;15.10;99.90;;;;;;5069568;28;20033;-70
2023/10/04 09:01:46;;;;;;;10.68;4.07;;;15.20;99.90;;;;;;5071838;28;20040;-71
2023/10/04 09:04:13;;;;;;;12.57;4.65;;;15.20;99.90;;;;;;5065234;28;20045;-71
2023/10/04 09:06:42;;;;;;;14.05;3.78;;;15.30;99.90;;;;;;5068224;28;20040;-70
2023/10/04 09:09:11;;;;;;;11.07;3.67;;;15.30;99.90;;;;;;5070358;28;20098;-70
2023/10/04 09:11:38;;;;;;;9.35;3.33;;;15.40;99.90;;;;;;5063295;28;20094;-70
2023/10/04 09:14:03;;;;;;;11.07;4.13;;;15.40;99.90;;;;;;5061390;28;20036;-71
2023/10/04 09:16:29;;;;;;;10.60;3.70;;;15.50;99.90;;;;;;5070568;28;20044;-71
2023/10/04 09:19:07;;;;;;;14.18;3.90;;;15.50;99.90;;;;;;5071448;28;20045;-69
2023/10/04 09:21:36;;;;;;;16.38;3.75;;;15.60;99.90;;;;;;5064077;28;20107;-71
2023/10/04 09:24:13;;;;;;;12.23;3.80;;;15.70;99.90;;;;;;5058519;28;20565;-70
2023/10/04 09:26:42;;;;;;;12.13;3.78;;;15.70;99.90;;;;;;5067563;28;20402;-69
2023/10/04 09:29:10;;;;;;;15.48;3.80;;;15.70;99.90;;;;;;5066879;28;20123;-71
2023/10/04 09:31:48;;;;;;;14.98;4.03;;;15.80;99.90;;;;;;5068137;28;20043;-69
2023/10/04 09:34:14;;;;;;;13.52;3.35;;;15.80;99.90;;;;;;5069947;28;20059;-71
2023/10/04 09:36:43;;;;;;;11.32;3.97;;;15.90;99.90;;;;;;5067021;28;20396;-71
2023/10/04 09:39:23;;;;;;;12.07;3.92;;;16.00;99.90;;;;;;5054934;28;20472;-71
2023/10/04 09:41:50;;;;;;;13.27;3.90;;;16.10;99.90;;;;;;5063758;28;20051;-71
2023/10/04 09:44:23;;;;;;;15.52;4.40;;;16.20;99.90;;;;;;5072256;28;20119;-71
2023/10/04 09:46:56;;;;;;;10.13;4.22;;;16.20;99.90;;;;;;5056133;28;20080;-71
2023/10/04 09:49:31;;;;;;;11.18;3.90;;;16.30;99.90;;;;;;5063700;28;20045;-70
2023/10/04 09:52:00;;;;;;;16.40;4.10;;;16.40;99.90;;;;;;5074243;28;20036;-69
2023/10/04 09:54:27;;;;;;;12.25;4.10;;;16.40;99.90;;;;;;5073696;28;20044;-69
2023/10/04 09:56:54;;;;;;;11.20;4.07;;;16.50;99.90;;;;;;5064860;28;20041;-70
2023/10/04 09:59:21;;;;;;;15.25;3.75;;;16.60;99.90;;;;;;5064478;28;20404;-71
2023/10/04 10:01:57;;;;;;;14.35;3.88;;;16.60;99.90;;;;;;5065297;28;20487;-71
2023/10/04 10:04:34;;;;;;;11.55;4.03;;;16.70;99.90;;;;;;5063362;28;20376;-71
2023/10/04 10:07:09;;;;;;;10.60;3.58;;;16.80;99.90;;;;;;5062615;28;20041;-71
2023/10/04 10:09:48;;;;;;;12.35;3.75;;;16.80;99.90;;;;;;5066597;28;20395;-71
2023/10/04 10:12:15;;;;;;;15.90;3.70;;;16.80;99.90;;;;;;5074914;28;20111;-70
2023/10/04 10:14:45;;;;;;;10.90;3.13;;;16.80;99.90;;;;;;5060407;28;20032;-70
2023/10/04 10:17:11;;;;;;;13.13;4.20;;;16.90;99.90;;;;;;5060921;28;20546;-69
2023/10/04 10:19:37;;;;;;;11.25;3.38;;;17.00;99.90;;;;;;5064465;28;20039;-70
2023/10/04 10:22:05;;;;;;;12.00;4.07;;;17.00;99.90;;;;;;5071212;28;20036;-69
2023/10/04 10:24:31;;;;;;;9.07;3.13;;;17.10;99.90;;;;;;5054454;28;20099;-70
2023/10/04 10:27:24;;;;;;;16.45;3.33;;;17.10;99.90;;;;;;5056818;28;20048;-69
2023/10/04 10:29:53;;;;;;;11.65;3.67;;;17.10;99.90;;;;;;5067481;28;20062;-71
2023/10/04 10:32:23;;;;;;;10.15;3.60;;;17.10;99.90;;;;;;5074225;28;20033;-71
2023/10/04 10:34:51;;;;;;;15.82;3.58;;;17.10;99.90;;;;;;5070886;28;20055;-70
2023/10/04 10:37:22;;;;;;;14.20;4.00;;;17.20;99.90;;;;;;5057499;28;20119;-71
2023/10/04 10:39:49;;;;;;;;;;;17.20;99.90;;;;;;5055415;28;20504;-70
2023/10/04 10:42:15;;;;;;;12.57;3.88;;;17.20;99.90;;;;;;5052966;28;19959;-70
2023/10/04 10:44:41;;;;;;;12.82;3.53;;;17.30;99.90;;;;;;5058666;28;20029;-70
2023/10/04 10:47:25;;;;;;;10.07;3.83;;;17.40;99.90;;;;;;5055848;28;20111;-70
2023/10/04 10:49:59;;;;;;;11.82;3.65;;;17.40;99.90;;;;;;5070014;28;20040;-69
2023/10/04 10:52:38;;;;;;;14.30;4.15;;;17.50;99.90;;;;;;5061027;28;20086;-70
2023/10/04 10:55:06;;;;;;;14.50;4.00;;;17.50;99.90;;;;;;5065037;28;20499;-70
2023/10/04 10:57:41;;;;;;;14.65;4.03;;;17.50;99.90;;;;;;5065297;28;20462;-70
2023/10/04 11:00:20;;;;;;;11.52;3.90;;;17.40;99.90;;;;;;5069928;28;20067;-70
2023/10/04 11:02:47;;;;;;;10.25;3.90;;;17.30;99.90;;;;;;5056636;28;20116;-69
2023/10/04 11:05:16;;;;;;;12.40;4.05;;;17.30;99.90;;;;;;5050136;28;20494;-70
2023/10/04 11:07:44;;;;;;;12.95;3.90;;;17.20;99.90;;;;;;5069760;28;20299;-70
2023/10/04 11:10:15;;;;;;;11.45;3.20;;;17.30;99.90;;;;;;5060973;28;20037;-70
2023/10/04 11:12:46;;;;;;;11.73;4.07;;;17.20;99.90;;;;;;5071887;28;20037;-69
2023/10/04 11:15:12;;;;;;;13.43;4.07;;;17.20;99.90;;;;;;5073849;28;20076;-70
2023/10/04 11:17:38;;;;;;;13.23;3.47;;;17.20;99.90;;;;;;5052173;28;20039;-69
2023/10/04 11:20:11;;;;;;;9.82;4.05;;;17.20;99.90;;;;;;5069226;28;20032;-72
2023/10/04 11:22:38;;;;;;;10.48;3.67;;;17.20;99.90;;;;;;5067935;28;20086;-71
2023/10/04 11:25:06;;;;;;;13.43;4.22;;;17.20;99.90;;;;;;5063789;28;20037;-70
2023/10/04 11:27:32;;;;;;;9.35;3.83;;;17.20;99.90;;;;;;5042312;28;20036;-70
2023/10/04 11:29:59;;;;;;;12.75;4.05;;;17.10;99.90;;;;;;5060221;28;20056;-72
2023/10/04 11:32:27;;;;;;;13.52;3.63;;;17.10;99.90;;;;;;5071047;28;20033;-69
2023/10/04 11:34:52;;;;;;;14.25;4.20;;;17.10;99.90;;;;;;5072699;28;20047;-70
2023/10/04 11:37:18;;;;;;;12.80;4.35;;;17.10;99.90;;;;;;5071835;28;20041;-69
2023/10/04 11:39:44;;;;;;;13.35;4.00;;;17.20;99.90;;;;;;5064583;28;20116;-70
2023/10/04 11:42:23;;;;;;;15.45;4.10;;;17.20;99.90;;;;;;5062640;28;20095;-69
2023/10/04 11:44:49;;;;;;;12.65;4.22;;;17.10;99.90;;;;;;5058693;28;20044;-69
2023/10/04 11:47:27;;;;;;;12.05;3.88;;;17.10;99.90;;;;;;5069242;28;20071;-69
2023/10/04 11:49:58;;;;;;;11.43;3.63;;;17.00;99.90;;;;;;5071402;28;20048;-69
2023/10/04 11:52:31;;;;;;;15.25;3.97;;;17.00;99.90;;;;;;5068415;28;20107;-70
2023/10/04 11:54:58;;;;;;;13.40;4.10;;;17.00;99.90;;;;;;5061102;28;20115;-69
2023/10/04 11:57:28;;;;;;;13.13;4.20;;;17.00;99.90;;;;;;5070882;28;20106;-70
2023/10/04 11:59:56;;;;;;;16.15;4.20;;;16.90;99.90;;;;;;5056837;28;20032;-70
2023/10/04 12:02:22;;;;;;;13.68;4.28;;;16.90;99.90;;;;;;5066995;28;20097;-70
2023/10/04 12:04:49;;;;;;;15.30;3.75;;;16.80;99.90;;;;;;5072616;28;20449;-70
2023/10/04 12:07:15;;;;;;;13.90;4.40;;;16.70;99.90;;;;;;5065127;28;20040;-70
2023/10/04 12:09:40;;;;;;;11.35;3.97;;;16.70;99.90;;;;;;5065126;28;20043;-70
2023/10/04 12:12:06;;;;;;;13.35;3.78;;;16.70;99.90;;;;;;5071335;28;20090;-69
2023/10/04 12:14:32;;;;;;;13.90;4.45;;;16.80;99.90;;;;;;5068426;28;20460;-70
2023/10/04 12:17:03;;;;;;;11.82;4.10;;;16.80;99.90;;;;;;5058212;28;20037;-69
2023/10/04 12:19:33;;;;;;;10.30;3.45;;;16.90;99.90;;;;;;5071537;28;20483;-70
2023/10/04 12:22:02;;;;;;;14.30;3.97;;;17.00;99.90;;;;;;5072482;28;20036;-70
2023/10/04 12:24:30;;;;;;;13.93;3.67;;;17.10;99.90;;;;;;5060671;28;20087;-70
2023/10/04 12:26:58;;;;;;;14.80;3.58;;;17.20;99.90;;;;;;5071596;28;20036;-69
2023/10/04 12:29:27;;;;;;;10.10;3.80;;;17.30;99.90;;;;;;5070480;28;20603;-70
2023/10/04 12:31:53;;;;;;;12.13;3.90;;;17.40;99.90;;;;;;5049299;28;20045;-70
2023/10/04 12:34:20;;;;;;;10.00;3.78;;;17.50;99.90;;;;;;5062501;28;20032;-69
2023/10/04 12:36:46;;;;;;;13.23;4.00;;;17.50;99.90;;;;;;5067410;28;20045;-70
2023/10/04 12:39:15;;;;;;;14.07;3.80;;;17.50;99.90;;;;;;5068472;28;20128;-70
2023/10/04 12:41:41;;;;;;;9.20;3.58;;;17.40;99.90;;;;;;5063262;28;20119;-70
2023/10/04 12:44:08;;;;;;;12.07;4.00;;;17.30;99.90;;;;;;5071063;28;20069;-70
2023/10/04 12:46:34;;;;;;;13.65;3.97;;;17.20;99.90;;;;;;5071304;28;20047;-70
2023/10/04 12:49:00;;;;;;;16.42;4.18;;;17.20;99.90;;;;;;5060875;28;20396;-70